Time;durP1;ratioP1;P1;durP2;ratioP2;P2;SDS_P1;SDS_P2;PMS_P1;PMS_P2;Temp;Humidity;BMP_temperature;BMP_pressure;BME280_temperature;BME280_humidity;BME280_pressure;Samples;Min_cycle;Max_cycle;Signal;HPM_P1;HPM_P2
2021/01/08 00:02:23;;;;;;;22.43;20.23;;;1.30;99.90;;;;;;6099176;23;20394;-79
2021/01/08 00:04:49;;;;;;;23.50;21.20;;;1.40;99.90;;;;;;6098969;23;20397;-79
2021/01/08 00:07:16;;;;;;;22.53;20.40;;;1.40;99.90;;;;;;6098897;23;20409;-79
2021/01/08 00:09:42;;;;;;;23.07;20.77;;;1.30;99.90;;;;;;6097379;23;20406;-79
2021/01/08 00:12:09;;;;;;;24.77;22.37;;;1.30;99.90;;;;;;6097601;23;20436;-79
2021/01/08 00:14:35;;;;;;;22.30;20.10;;;1.30;99.90;;;;;;6099326;23;20390;-79
2021/01/08 00:17:02;;;;;;;23.37;21.10;;;1.30;99.90;;;;;;6097262;23;20414;-79
2021/01/08 00:19:29;;;;;;;23.60;21.23;;;1.30;99.90;;;;;;6098976;23;20390;-79
2021/01/08 00:21:55;;;;;;;21.30;19.40;;;1.30;99.90;;;;;;6097545;23;20418;-79
2021/01/08 00:24:21;;;;;;;21.67;19.53;;;1.30;99.90;;;;;;6099251;23;20396;-79
2021/01/08 00:26:48;;;;;;;20.87;18.87;;;1.30;99.90;;;;;;6099258;23;20399;-79
2021/01/08 00:29:15;;;;;;;22.70;20.30;;;1.30;99.90;;;;;;6098389;23;20442;-79
2021/01/08 00:31:43;;;;;;;22.27;20.17;;;1.30;99.90;;;;;;6097414;23;20932;-78
2021/01/08 00:34:11;;;;;;;22.43;20.33;;;1.30;99.90;;;;;;6097781;23;20414;-79
2021/01/08 00:36:48;;;;;;;22.83;20.73;;;1.30;99.90;;;;;;6099316;23;20454;-79
2021/01/08 00:39:14;;;;;;;21.70;19.80;;;1.30;99.90;;;;;;6097245;23;21169;-79
2021/01/08 00:41:40;;;;;;;23.30;21.00;;;1.40;99.90;;;;;;6099119;23;20457;-79
2021/01/08 00:44:07;;;;;;;23.60;21.33;;;1.40;99.90;;;;;;6098915;23;20398;-78
2021/01/08 00:46:33;;;;;;;23.40;21.10;;;1.40;99.90;;;;;;6098808;23;20395;-81
2021/01/08 00:49:00;;;;;;;22.60;20.20;;;1.40;99.90;;;;;;6097155;23;20440;-79
2021/01/08 00:51:27;;;;;;;23.17;20.90;;;1.40;99.90;;;;;;6098843;23;20401;-79
2021/01/08 00:53:55;;;;;;;23.17;20.83;;;1.40;99.90;;;;;;6097543;23;20450;-79
2021/01/08 00:56:22;;;;;;;23.53;21.23;;;1.30;99.90;;;;;;6098477;23;20390;-79
2021/01/08 00:58:52;;;;;;;22.50;20.40;;;1.40;99.90;;;;;;6096809;23;20870;-79
2021/01/08 01:01:19;;;;;;;23.53;21.23;;;1.40;99.90;;;;;;6097092;23;20414;-79
2021/01/08 01:03:46;;;;;;;24.03;21.53;;;1.40;99.90;;;;;;6097373;23;20422;-78
2021/01/08 01:06:13;;;;;;;23.70;21.20;;;1.40;99.90;;;;;;6097089;23;20439;-79
2021/01/08 01:08:39;;;;;;;22.57;20.53;;;1.40;99.90;;;;;;6098051;23;20430;-78
2021/01/08 01:11:06;;;;;;;23.47;21.17;;;1.40;99.90;;;;;;6098596;23;20406;-79
2021/01/08 01:13:32;;;;;;;21.70;19.43;;;1.40;99.90;;;;;;6098281;23;20452;-79
2021/01/08 01:15:59;;;;;;;21.50;19.53;;;1.40;99.90;;;;;;6099188;23;20443;-79
2021/01/08 01:18:25;;;;;;;22.83;20.40;;;1.40;99.90;;;;;;6097111;23;20441;-79
2021/01/08 01:20:51;;;;;;;23.13;20.73;;;1.40;99.90;;;;;;6097082;23;20419;-78
2021/01/08 01:23:17;;;;;;;22.53;20.43;;;1.40;99.90;;;;;;6098724;23;20871;-79
2021/01/08 01:25:44;;;;;;;22.07;19.97;;;1.40;99.90;;;;;;6096559;23;20474;-78
2021/01/08 01:28:11;;;;;;;22.23;19.93;;;1.40;99.90;;;;;;6096392;23;20434;-79
2021/01/08 01:30:37;;;;;;;22.77;20.57;;;1.40;99.90;;;;;;6096340;23;20414;-79
2021/01/08 01:33:04;;;;;;;22.83;20.73;;;1.40;99.90;;;;;;6097696;23;20507;-78
2021/01/08 01:35:30;;;;;;;22.93;20.83;;;1.40;99.90;;;;;;6095904;23;20422;-79
2021/01/08 01:37:57;;;;;;;22.83;20.53;;;1.40;99.90;;;;;;6096605;23;20472;-79
2021/01/08 01:40:23;;;;;;;22.27;19.97;;;1.40;99.90;;;;;;6095907;23;20422;-78
2021/01/08 01:42:49;;;;;;;23.87;21.43;;;1.40;99.90;;;;;;6096248;23;20942;-79
2021/01/08 01:45:17;;;;;;;23.83;21.47;;;1.40;99.90;;;;;;6097607;23;20391;-79
2021/01/08 01:47:43;;;;;;;23.53;20.83;;;1.40;99.90;;;;;;6096183;23;20443;-79
2021/01/08 01:50:10;;;;;;;23.80;21.50;;;1.40;99.90;;;;;;6095858;23;20417;-79
2021/01/08 01:52:36;;;;;;;23.20;20.87;;;1.40;99.90;;;;;;6097624;23;20981;-79
2021/01/08 01:55:03;;;;;;;23.07;20.87;;;1.40;99.90;;;;;;6098663;23;20390;-79
2021/01/08 01:57:29;;;;;;;24.17;21.80;;;1.30;99.90;;;;;;6098444;23;20422;-79
2021/01/08 01:59:56;;;;;;;22.97;20.70;;;1.30;99.90;;;;;;6096504;23;20410;-79
2021/01/08 02:02:31;;;;;;;23.30;20.83;;;1.30;99.90;;;;;;6096824;23;20442;-79
2021/01/08 02:05:01;;;;;;;22.83;20.53;;;1.40;99.90;;;;;;6099079;23;20446;-78
2021/01/08 02:07:31;;;;;;;24.17;21.67;;;1.40;99.90;;;;;;6098055;23;20425;-79
2021/01/08 02:09:59;;;;;;;23.57;21.17;;;1.40;99.90;;;;;;6098294;23;20768;-79
2021/01/08 02:12:27;;;;;;;22.37;20.27;;;1.30;99.90;;;;;;6096968;23;20438;-78
2021/01/08 02:14:55;;;;;;;22.97;20.67;;;1.30;99.90;;;;;;6098801;23;20425;-79
2021/01/08 02:17:22;;;;;;;22.27;20.03;;;1.30;99.90;;;;;;6096753;23;20945;-79
2021/01/08 02:19:51;;;;;;;22.50;20.30;;;1.30;99.90;;;;;;6096196;23;20418;-79
2021/01/08 02:22:23;;;;;;;23.27;20.97;;;1.30;99.90;;;;;;6096872;23;20418;-79
2021/01/08 02:25:10;;;;;;;23.10;20.77;;;1.30;99.90;;;;;;6096449;23;20420;-78
2021/01/08 02:27:39;;;;;;;23.73;21.47;;;1.30;99.90;;;;;;6096592;23;20468;-78
2021/01/08 02:30:07;;;;;;;23.73;21.43;;;1.30;99.90;;;;;;6097948;23;20394;-79
2021/01/08 02:32:34;;;;;;;23.77;21.27;;;1.30;99.90;;;;;;6098152;23;20425;-79
2021/01/08 02:35:03;;;;;;;23.57;21.20;;;1.30;99.90;;;;;;6096575;23;20901;-78
2021/01/08 02:37:36;;;;;;;23.40;21.10;;;1.20;99.90;;;;;;6096364;23;20490;-79
2021/01/08 02:40:03;;;;;;;23.30;21.13;;;1.20;99.90;;;;;;6096059;23;20425;-78
2021/01/08 02:42:32;;;;;;;23.13;21.13;;;1.20;99.90;;;;;;6096275;23;20924;-79
2021/01/08 02:44:58;;;;;;;23.83;21.50;;;1.10;99.90;;;;;;6097647;23;20391;-79
2021/01/08 02:47:24;;;;;;;23.50;21.20;;;1.10;99.90;;;;;;6099040;23;20418;-79
2021/01/08 02:49:51;;;;;;;23.10;20.73;;;1.00;99.90;;;;;;6097915;23;20418;-79
2021/01/08 02:52:18;;;;;;;23.33;21.23;;;1.00;99.90;;;;;;6097936;23;20446;-78
2021/01/08 02:54:45;;;;;;;23.53;21.13;;;1.00;99.90;;;;;;6097432;23;20458;-79
2021/01/08 02:57:13;;;;;;;22.43;20.47;;;0.90;99.90;;;;;;6099070;23;20776;-78
2021/01/08 02:59:41;;;;;;;22.90;20.60;;;0.90;99.90;;;;;;6098723;23;20398;-79
2021/01/08 03:02:08;;;;;;;22.73;20.57;;;1.00;99.90;;;;;;6097834;23;20420;-79
2021/01/08 03:04:34;;;;;;;23.03;20.87;;;0.90;99.90;;;;;;6097679;23;20426;-79
2021/01/08 03:07:01;;;;;;;23.17;20.97;;;0.90;99.90;;;;;;6099371;23;20398;-78
2021/01/08 03:09:28;;;;;;;23.17;20.73;;;0.90;99.90;;;;;;6097230;23;20394;-78
2021/01/08 03:11:56;;;;;;;22.07;20.10;;;0.90;99.90;;;;;;6097313;23;20391;-79
2021/01/08 03:14:23;;;;;;;23.17;20.77;;;0.90;99.90;;;;;;6095818;23;20418;-78
2021/01/08 03:16:51;;;;;;;22.20;20.10;;;0.90;99.90;;;;;;6095874;23;20422;-79
2021/01/08 03:19:17;;;;;;;22.50;20.27;;;0.90;99.90;;;;;;6095193;23;20438;-79
2021/01/08 03:21:44;;;;;;;22.07;20.07;;;0.90;99.90;;;;;;6095449;23;20767;-79
2021/01/08 03:24:10;;;;;;;22.13;20.13;;;0.90;99.90;;;;;;6095600;23;20413;-78
2021/01/08 03:26:37;;;;;;;22.60;20.47;;;0.90;99.90;;;;;;6095393;23;20509;-78
2021/01/08 03:29:03;;;;;;;22.00;20.10;;;0.90;99.90;;;;;;6095554;23;20512;-78
2021/01/08 03:31:29;;;;;;;21.60;19.57;;;0.90;99.90;;;;;;6095260;23;20419;-77
2021/01/08 03:33:56;;;;;;;21.57;19.57;;;0.90;99.90;;;;;;6096220;23;20440;-78
2021/01/08 03:36:23;;;;;;;20.73;18.90;;;0.90;99.90;;;;;;6094631;23;20426;-78
2021/01/08 03:38:49;;;;;;;21.23;19.40;;;0.90;99.90;;;;;;6096349;23;20414;-78
2021/01/08 03:41:15;;;;;;;21.17;19.27;;;0.90;99.90;;;;;;6096286;23;20401;-78
2021/01/08 03:43:42;;;;;;;20.37;18.57;;;0.90;99.90;;;;;;6097817;23;20729;-79
2021/01/08 03:46:08;;;;;;;19.97;18.13;;;0.90;99.90;;;;;;6098104;23;20390;-77
2021/01/08 03:48:34;;;;;;;20.07;18.17;;;1.00;99.90;;;;;;6098480;23;20419;-78
2021/01/08 03:51:01;;;;;;;20.57;18.73;;;1.00;99.90;;;;;;6096173;23;20418;-77
2021/01/08 03:53:28;;;;;;;20.50;18.80;;;1.00;99.90;;;;;;6097720;23;20438;-78
2021/01/08 03:55:54;;;;;;;20.13;18.47;;;1.00;99.90;;;;;;6097463;23;20391;-78
2021/01/08 03:58:20;;;;;;;19.93;18.23;;;1.00;99.90;;;;;;6095759;23;20757;-77
2021/01/08 04:00:46;;;;;;;19.77;18.17;;;0.90;99.90;;;;;;6096937;23;20390;-79
2021/01/08 04:03:13;;;;;;;19.80;18.00;;;0.90;99.90;;;;;;6095165;23;20390;-76
2021/01/08 04:05:39;;;;;;;20.90;19.00;;;0.90;99.90;;;;;;6094500;23;20968;-77
2021/01/08 04:08:06;;;;;;;20.17;18.23;;;0.90;99.90;;;;;;6070168;23;588080;-77
2021/01/08 04:10:32;;;;;;;20.50;18.67;;;0.90;99.90;;;;;;6094683;23;20424;-78
2021/01/08 04:12:59;;;;;;;21.13;19.07;;;0.90;99.90;;;;;;6096374;23;20430;-78
2021/01/08 04:15:25;;;;;;;21.83;19.77;;;0.90;99.90;;;;;;6096706;23;20397;-77
2021/01/08 04:17:51;;;;;;;20.63;18.60;;;0.90;99.90;;;;;;6095573;23;20442;-78
2021/01/08 04:20:18;;;;;;;21.33;19.13;;;0.90;99.90;;;;;;6093475;23;20805;-77
2021/01/08 04:22:44;;;;;;;20.43;18.50;;;0.90;99.90;;;;;;6095928;23;20411;-78
2021/01/08 04:25:12;;;;;;;21.00;18.93;;;0.90;99.90;;;;;;6095202;23;20893;-76
2021/01/08 04:27:38;;;;;;;19.60;17.80;;;0.90;99.90;;;;;;6095787;23;20421;-77
2021/01/08 04:30:07;;;;;;;20.10;18.30;;;0.90;99.90;;;;;;6095515;23;20386;-75
2021/01/08 04:32:34;;;;;;;20.63;18.83;;;0.90;99.90;;;;;;6096006;23;20425;-78
2021/01/08 04:35:00;;;;;;;20.00;18.30;;;0.90;99.90;;;;;;6096873;23;20916;-76
2021/01/08 04:37:26;;;;;;;19.60;17.90;;;1.00;99.90;;;;;;6096059;23;20754;-76
2021/01/08 04:39:53;;;;;;;19.83;17.83;;;1.00;99.90;;;;;;6095498;23;20430;-76
2021/01/08 04:42:20;;;;;;;18.90;17.30;;;1.10;99.90;;;;;;6093984;23;20517;-76
2021/01/08 04:44:46;;;;;;;19.43;17.73;;;1.00;99.90;;;;;;6097153;23;20418;-76
2021/01/08 04:47:15;;;;;;;18.33;16.80;;;1.10;99.90;;;;;;6095617;23;20407;-76
2021/01/08 04:49:41;;;;;;;19.17;17.57;;;1.10;99.90;;;;;;6093878;23;20414;-77
2021/01/08 04:52:08;;;;;;;20.07;18.37;;;1.10;99.90;;;;;;6095651;23;20394;-76
2021/01/08 04:54:35;;;;;;;18.70;17.20;;;1.10;99.90;;;;;;6094240;23;20394;-76
2021/01/08 04:57:03;;;;;;;18.93;17.37;;;1.10;99.90;;;;;;6094656;23;20401;-76
2021/01/08 04:59:31;;;;;;;18.27;16.80;;;1.10;99.90;;;;;;6092970;23;20429;-76
2021/01/08 05:01:57;;;;;;;18.30;16.93;;;1.10;99.90;;;;;;6095817;23;20476;-77
2021/01/08 05:04:24;;;;;;;18.40;16.70;;;1.10;99.90;;;;;;6095932;23;20395;-77
2021/01/08 05:06:51;;;;;;;19.00;17.40;;;1.10;99.90;;;;;;6096138;23;20390;-77
2021/01/08 05:09:17;;;;;;;19.57;18.07;;;1.10;99.90;;;;;;6095061;23;20477;-76
2021/01/08 05:11:46;;;;;;;19.33;17.80;;;1.10;99.90;;;;;;6095475;23;20391;-76
2021/01/08 05:14:15;;;;;;;18.83;17.43;;;1.10;99.90;;;;;;6093729;23;20497;-76
2021/01/08 05:16:43;;;;;;;18.70;17.10;;;1.10;99.90;;;;;;6093781;23;20418;-77
2021/01/08 05:19:09;;;;;;;18.73;17.20;;;1.10;99.90;;;;;;6094951;23;20415;-76
2021/01/08 05:21:36;;;;;;;17.77;16.40;;;1.10;99.90;;;;;;6093925;23;20421;-76
2021/01/08 05:24:05;;;;;;;18.60;17.00;;;1.10;99.90;;;;;;6095370;23;20401;-76
2021/01/08 05:26:32;;;;;;;19.73;18.13;;;1.10;99.90;;;;;;6093845;23;20418;-76
2021/01/08 05:29:00;;;;;;;19.13;17.53;;;1.10;99.90;;;;;;6094048;23;20936;-76
2021/01/08 05:31:28;;;;;;;19.47;17.90;;;1.10;99.90;;;;;;6095070;23;20393;-76
2021/01/08 05:33:57;;;;;;;18.87;17.27;;;1.10;99.90;;;;;;6095112;23;20438;-76
2021/01/08 05:36:25;;;;;;;18.23;16.77;;;1.10;99.90;;;;;;6095275;23;20423;-75
2021/01/08 05:38:53;;;;;;;18.87;17.37;;;1.10;99.90;;;;;;6095065;23;20500;-77
2021/01/08 05:41:20;;;;;;;19.33;17.70;;;1.10;99.90;;;;;;6095199;23;20390;-76
2021/01/08 05:43:47;;;;;;;19.17;17.57;;;1.20;99.90;;;;;;6093610;23;20543;-76
2021/01/08 05:46:16;;;;;;;18.60;17.10;;;1.20;99.90;;;;;;6095044;23;20396;-76
2021/01/08 05:48:47;;;;;;;19.03;17.50;;;1.20;99.90;;;;;;6093226;23;20443;-76
2021/01/08 05:51:18;;;;;;;19.70;18.13;;;1.20;99.90;;;;;;6095314;23;20384;-76
2021/01/08 05:53:48;;;;;;;19.10;17.50;;;1.20;99.90;;;;;;6093587;23;20465;-76
2021/01/08 05:56:16;;;;;;;18.37;16.97;;;1.20;99.90;;;;;;6093676;23;20425;-76
2021/01/08 05:58:43;;;;;;;19.10;17.40;;;1.20;99.90;;;;;;6093196;23;20995;-77
2021/01/08 06:01:09;;;;;;;19.03;17.43;;;1.20;99.90;;;;;;6094018;23;20432;-78
2021/01/08 06:03:38;;;;;;;19.03;17.43;;;1.30;99.90;;;;;;6095447;23;20940;-77
2021/01/08 06:06:05;;;;;;;18.87;17.43;;;1.30;99.90;;;;;;6095845;23;20461;-77
2021/01/08 06:08:36;;;;;;;17.40;16.07;;;1.30;99.90;;;;;;6095013;23;20427;-76
2021/01/08 06:11:05;;;;;;;19.47;17.53;;;1.20;99.90;;;;;;6093620;23;20402;-78
2021/01/08 06:13:35;;;;;;;19.17;17.57;;;1.30;99.90;;;;;;6095261;23;20434;-76
2021/01/08 06:16:02;;;;;;;18.50;17.03;;;1.20;99.90;;;;;;6095362;23;20383;-76
2021/01/08 06:18:29;;;;;;;18.20;16.80;;;1.30;99.90;;;;;;6093284;23;20453;-77
2021/01/08 06:21:05;;;;;;;18.57;17.07;;;1.30;99.90;;;;;;6093967;23;20422;-77
2021/01/08 06:23:51;;;;;;;19.33;17.73;;;1.30;99.90;;;;;;6097494;23;20370;-77
2021/01/08 06:26:18;;;;;;;19.60;17.90;;;1.30;99.90;;;;;;6097086;23;20388;-77
2021/01/08 06:28:46;;;;;;;18.90;17.10;;;1.30;99.90;;;;;;6097358;23;20410;-77
2021/01/08 06:31:35;;;;;;;18.83;17.27;;;1.30;99.90;;;;;;6095810;23;20414;-78
2021/01/08 06:34:03;;;;;;;19.50;17.80;;;1.20;99.90;;;;;;6098753;23;20449;-78
2021/01/08 06:36:30;;;;;;;19.17;17.57;;;1.30;99.90;;;;;;6096864;23;20417;-79
2021/01/08 06:38:59;;;;;;;18.13;16.70;;;1.30;99.90;;;;;;6098405;23;20414;-78
2021/01/08 06:41:26;;;;;;;20.70;18.80;;;1.30;99.90;;;;;;6098742;23;20392;-78
2021/01/08 06:43:56;;;;;;;19.50;17.83;;;1.30;99.90;;;;;;6098478;23;20396;-78
2021/01/08 06:46:36;;;;;;;19.83;18.23;;;1.40;99.90;;;;;;6098076;23;20383;-78
2021/01/08 06:49:05;;;;;;;19.87;18.07;;;1.30;99.90;;;;;;6098339;23;20427;-78
2021/01/08 06:51:33;;;;;;;19.03;17.47;;;1.30;99.90;;;;;;6098349;23;20888;-78
2021/01/08 06:54:03;;;;;;;19.07;17.40;;;1.30;99.90;;;;;;6098654;23;20426;-78
2021/01/08 06:56:32;;;;;;;20.33;18.63;;;1.30;99.90;;;;;;6096813;23;20422;-78
2021/01/08 06:58:59;;;;;;;19.47;17.73;;;1.30;99.90;;;;;;6098620;23;20465;-77
2021/01/08 07:01:39;;;;;;;19.43;17.83;;;1.30;99.90;;;;;;6096649;23;20944;-77
2021/01/08 07:04:07;;;;;;;19.43;17.73;;;1.30;99.90;;;;;;6097056;23;20504;-78
2021/01/08 07:06:35;;;;;;;20.83;19.03;;;1.30;99.90;;;;;;6097078;23;20428;-78
2021/01/08 07:09:03;;;;;;;19.67;18.07;;;1.30;99.90;;;;;;6096997;23;20440;-79
2021/01/08 07:11:30;;;;;;;20.33;18.63;;;1.30;99.90;;;;;;6096295;23;20417;-77
2021/01/08 07:14:08;;;;;;;18.37;17.00;;;1.30;99.90;;;;;;6096032;23;20465;-78
2021/01/08 07:16:39;;;;;;;18.93;17.40;;;1.30;99.90;;;;;;6096418;23;20762;-79
2021/01/08 07:19:09;;;;;;;18.40;17.00;;;1.30;99.90;;;;;;6098959;23;20422;-79
2021/01/08 07:21:40;;;;;;;18.23;16.73;;;1.30;99.90;;;;;;6097765;23;20421;-79
2021/01/08 07:24:11;;;;;;;18.13;16.63;;;1.40;99.90;;;;;;6098633;23;20378;-79
2021/01/08 07:26:37;;;;;;;19.20;17.60;;;1.40;99.90;;;;;;6096665;23;20484;-79
2021/01/08 07:29:06;;;;;;;17.70;16.37;;;1.40;99.90;;;;;;6097937;23;20451;-79
2021/01/08 07:31:34;;;;;;;18.80;17.20;;;1.40;99.90;;;;;;6096384;23;20437;-79
2021/01/08 07:34:03;;;;;;;19.00;17.40;;;1.40;99.90;;;;;;6096933;23;20442;-80
2021/01/08 07:36:31;;;;;;;18.10;16.73;;;1.40;99.90;;;;;;6096610;23;20419;-79
2021/01/08 07:38:58;;;;;;;17.70;16.30;;;1.50;99.90;;;;;;6098510;23;20422;-79
2021/01/08 07:41:37;;;;;;;17.23;15.83;;;1.50;99.90;;;;;;6096564;23;20477;-79
2021/01/08 07:44:05;;;;;;;17.43;16.00;;;1.50;99.90;;;;;;6097189;23;20417;-79
2021/01/08 07:46:33;;;;;;;17.27;15.87;;;1.60;99.90;;;;;;6096009;23;20972;-80
2021/01/08 07:49:01;;;;;;;17.73;16.13;;;1.60;99.90;;;;;;6097532;23;21009;-79
2021/01/08 07:51:46;;;;;;;17.20;15.90;;;1.60;99.90;;;;;;6098544;23;20382;-79
2021/01/08 07:54:12;;;;;;;17.20;15.60;;;1.60;99.90;;;;;;6096495;23;20439;-79
2021/01/08 07:57:04;;;;;;;18.97;17.17;;;1.60;99.90;;;;;;6098755;23;20492;-79
2021/01/08 07:59:31;;;;;;;17.57;16.13;;;1.60;99.90;;;;;;6096300;23;20538;-79
2021/01/08 08:01:57;;;;;;;17.27;15.70;;;1.60;99.90;;;;;;6098412;23;20391;-79
2021/01/08 08:04:27;;;;;;;17.93;16.47;;;1.70;99.90;;;;;;6098680;23;20732;-79
2021/01/08 08:06:55;;;;;;;17.47;16.03;;;1.80;99.90;;;;;;6096410;23;20771;-79
2021/01/08 08:09:22;;;;;;;17.33;15.93;;;1.80;99.90;;;;;;6098466;23;20494;-79
2021/01/08 08:11:48;;;;;;;17.10;15.80;;;1.90;99.90;;;;;;6097321;23;20477;-79
2021/01/08 08:14:17;;;;;;;17.80;16.30;;;1.80;99.90;;;;;;6098349;23;20435;-80
2021/01/08 08:16:44;;;;;;;16.93;15.73;;;1.90;99.90;;;;;;6098490;23;20912;-79
2021/01/08 08:19:11;;;;;;;17.23;15.93;;;1.90;99.90;;;;;;6098051;23;20419;-79
2021/01/08 08:21:38;;;;;;;16.90;15.60;;;2.00;99.90;;;;;;6098311;23;20398;-79
2021/01/08 08:24:06;;;;;;;17.00;15.63;;;2.00;99.90;;;;;;6098007;23;20767;-79
2021/01/08 08:26:34;;;;;;;17.03;15.63;;;2.00;99.90;;;;;;6097971;23;20396;-79
2021/01/08 08:29:04;;;;;;;17.20;15.80;;;2.00;99.90;;;;;;6098221;23;20477;-79
2021/01/08 08:31:33;;;;;;;16.03;14.70;;;2.10;99.90;;;;;;6097950;23;20728;-79
2021/01/08 08:34:01;;;;;;;15.70;14.50;;;2.10;99.90;;;;;;6097586;23;20424;-79
2021/01/08 08:36:30;;;;;;;15.77;14.40;;;2.10;99.90;;;;;;6097752;23;20485;-79
2021/01/08 08:39:01;;;;;;;15.97;14.57;;;2.20;99.90;;;;;;6097628;23;20807;-79
2021/01/08 08:41:28;;;;;;;15.83;14.43;;;2.20;99.90;;;;;;6096387;23;20404;-79
2021/01/08 08:44:06;;;;;;;16.03;14.73;;;2.20;99.90;;;;;;6096470;23;20419;-79
2021/01/08 08:46:44;;;;;;;15.60;14.30;;;2.20;99.90;;;;;;6098085;23;20739;-79
2021/01/08 08:49:12;;;;;;;15.70;14.50;;;2.20;99.90;;;;;;6096054;23;20445;-79
2021/01/08 08:51:43;;;;;;;14.70;13.60;;;2.20;99.90;;;;;;6096254;23;20417;-79
2021/01/08 08:54:10;;;;;;;15.63;14.43;;;2.20;99.90;;;;;;6095967;23;20449;-79
2021/01/08 08:56:40;;;;;;;15.13;13.93;;;2.30;99.90;;;;;;6098782;23;20707;-80
2021/01/08 08:59:07;;;;;;;14.87;13.60;;;2.30;99.90;;;;;;6097374;23;20456;-79
2021/01/08 09:01:40;;;;;;;15.00;13.80;;;2.40;99.90;;;;;;6095856;23;20394;-79
2021/01/08 09:04:08;;;;;;;15.27;13.93;;;2.40;99.90;;;;;;6096602;23;20423;-79
2021/01/08 09:06:37;;;;;;;15.27;13.97;;;2.50;99.90;;;;;;6095537;23;20434;-79
2021/01/08 09:09:17;;;;;;;15.20;13.97;;;2.60;99.90;;;;;;6095096;23;20765;-79
2021/01/08 09:12:00;;;;;;;16.87;15.57;;;2.60;99.90;;;;;;6098622;23;20383;-77
2021/01/08 09:14:31;;;;;;;16.83;15.53;;;2.70;99.90;;;;;;6096329;23;20429;-77
2021/01/08 09:17:04;;;;;;;15.37;14.10;;;2.70;99.90;;;;;;6096686;23;20374;-77
2021/01/08 09:19:41;;;;;;;14.17;13.17;;;2.70;99.90;;;;;;6096009;23;20405;-78
2021/01/08 09:22:11;;;;;;;15.23;14.13;;;2.80;99.90;;;;;;6096061;23;20380;-77
2021/01/08 09:24:40;;;;;;;15.17;14.03;;;2.80;99.90;;;;;;6096372;23;20447;-77
2021/01/08 09:27:10;;;;;;;14.93;13.73;;;2.80;99.90;;;;;;6096544;23;20387;-77
2021/01/08 09:29:37;;;;;;;15.63;14.43;;;2.80;99.90;;;;;;6094450;23;20423;-78
2021/01/08 09:32:05;;;;;;;16.00;14.70;;;2.80;99.90;;;;;;6096434;23;20765;-77
2021/01/08 09:34:33;;;;;;;15.60;14.40;;;2.90;99.90;;;;;;6094539;23;20475;-78
2021/01/08 09:37:11;;;;;;;15.80;14.50;;;2.90;99.90;;;;;;6096424;23;20413;-77
2021/01/08 09:39:41;;;;;;;15.73;14.53;;;2.90;99.90;;;;;;6095103;23;20406;-77
2021/01/08 09:42:10;;;;;;;16.27;15.03;;;3.10;99.90;;;;;;6096184;23;20387;-77
2021/01/08 09:44:38;;;;;;;15.90;14.60;;;3.20;99.90;;;;;;6094704;23;20926;-77
2021/01/08 09:47:06;;;;;;;16.23;14.93;;;3.20;99.90;;;;;;6095976;23;20390;-78
2021/01/08 09:49:42;;;;;;;15.70;14.40;;;3.20;99.90;;;;;;6094184;23;20420;-77
2021/01/08 09:52:09;;;;;;;16.27;15.07;;;3.30;99.90;;;;;;6096459;23;20393;-78
2021/01/08 09:54:40;;;;;;;16.37;15.10;;;3.40;99.90;;;;;;6095548;23;20440;-78
2021/01/08 09:57:07;;;;;;;14.77;13.57;;;3.40;99.90;;;;;;6096539;23;20936;-77
2021/01/08 09:59:33;;;;;;;15.40;14.20;;;3.50;99.90;;;;;;6098476;23;20397;-77
2021/01/08 10:02:04;;;;;;;15.47;14.30;;;3.60;99.90;;;;;;6097785;23;20416;-77
2021/01/08 10:04:31;;;;;;;15.93;14.83;;;3.70;99.90;;;;;;6096827;23;20492;-78
2021/01/08 10:07:00;;;;;;;16.03;14.83;;;3.80;99.90;;;;;;6098154;23;20437;-77
2021/01/08 10:09:26;;;;;;;15.47;14.20;;;3.80;99.90;;;;;;6099356;23;20490;-78
2021/01/08 10:12:00;;;;;;;16.17;14.80;;;3.90;99.90;;;;;;6096615;23;20469;-77
2021/01/08 10:14:31;;;;;;;15.17;13.97;;;3.90;99.90;;;;;;6096678;23;20465;-78
2021/01/08 10:17:08;;;;;;;15.93;14.67;;;3.90;99.90;;;;;;6096816;23;20417;-77
2021/01/08 10:19:35;;;;;;;14.53;13.33;;;4.00;99.90;;;;;;6098251;23;20390;-78
2021/01/08 10:22:02;;;;;;;15.80;14.40;;;4.00;99.90;;;;;;6096704;23;20481;-78
2021/01/08 10:24:29;;;;;;;14.37;13.27;;;4.10;99.90;;;;;;6096582;23;20409;-77
2021/01/08 10:26:55;;;;;;;14.90;13.80;;;4.10;99.90;;;;;;6098450;23;20386;-78
2021/01/08 10:29:29;;;;;;;14.97;13.87;;;4.10;99.90;;;;;;6097539;23;20413;-78
2021/01/08 10:31:57;;;;;;;15.17;13.97;;;4.10;99.90;;;;;;6096612;23;20528;-77
2021/01/08 10:34:24;;;;;;;15.20;13.83;;;4.10;99.90;;;;;;6096194;23;20437;-77
2021/01/08 10:36:50;;;;;;;14.93;13.83;;;4.10;99.90;;;;;;6096240;23;20413;-78
2021/01/08 10:39:17;;;;;;;14.13;13.03;;;4.20;99.90;;;;;;6097641;23;20418;-78
2021/01/08 10:41:43;;;;;;;14.17;13.10;;;4.20;99.90;;;;;;6096824;23;20432;-78
2021/01/08 10:44:10;;;;;;;15.73;14.43;;;4.20;99.90;;;;;;6098477;23;20528;-78
2021/01/08 10:46:36;;;;;;;15.70;14.40;;;4.20;99.90;;;;;;6098495;23;20170;-78
2021/01/08 10:49:02;;;;;;;16.50;15.30;;;4.20;99.90;;;;;;6097812;23;20921;-78
2021/01/08 10:51:29;;;;;;;16.00;14.87;;;4.20;99.90;;;;;;6097200;23;20413;-78
2021/01/08 10:53:55;;;;;;;15.77;14.40;;;4.10;99.90;;;;;;6096446;23;20434;-78
2021/01/08 10:56:27;;;;;;;14.73;13.70;;;4.00;99.90;;;;;;6097718;23;20502;-78
2021/01/08 10:58:54;;;;;;;15.87;14.67;;;4.00;99.90;;;;;;6098162;23;20422;-78
2021/01/08 11:01:20;;;;;;;15.07;13.97;;;4.00;99.90;;;;;;6096490;23;20174;-77
2021/01/08 11:03:46;;;;;;;14.07;13.03;;;4.00;99.90;;;;;;6098109;23;20396;-77
2021/01/08 11:06:16;;;;;;;15.20;14.00;;;4.10;99.90;;;;;;6096308;23;20441;-77
2021/01/08 11:08:43;;;;;;;14.00;13.07;;;4.10;99.90;;;;;;6095576;23;20442;-78
2021/01/08 11:11:09;;;;;;;13.60;12.60;;;4.10;99.90;;;;;;6095969;23;20805;-78
2021/01/08 11:13:36;;;;;;;14.50;13.40;;;4.20;99.90;;;;;;6096363;23;20189;-78
2021/01/08 11:16:03;;;;;;;14.90;13.90;;;4.30;99.90;;;;;;6097017;23;20960;-78
2021/01/08 11:18:29;;;;;;;13.97;13.07;;;4.30;99.90;;;;;;6096081;23;20449;-78
2021/01/08 11:20:56;;;;;;;13.97;13.07;;;4.30;99.90;;;;;;6096186;23;20418;-77
2021/01/08 11:23:22;;;;;;;13.90;12.90;;;4.30;99.90;;;;;;6096583;23;20418;-78
2021/01/08 11:25:48;;;;;;;13.87;12.97;;;4.30;99.90;;;;;;6096303;23;20817;-78
2021/01/08 11:28:14;;;;;;;14.33;13.33;;;4.30;99.90;;;;;;6095907;23;20198;-77
2021/01/08 11:30:41;;;;;;;14.00;13.10;;;4.40;99.90;;;;;;6097780;23;20394;-78
2021/01/08 11:33:08;;;;;;;14.07;13.17;;;4.30;99.90;;;;;;6095662;23;20189;-77
2021/01/08 11:35:35;;;;;;;13.87;12.87;;;4.20;99.90;;;;;;6097343;23;20386;-78
2021/01/08 11:38:01;;;;;;;14.30;13.30;;;4.30;99.90;;;;;;6095608;23;20202;-77
2021/01/08 11:40:27;;;;;;;14.47;13.47;;;4.30;99.90;;;;;;6095927;23;20709;-78
2021/01/08 11:42:54;;;;;;;14.07;13.00;;;4.30;99.90;;;;;;6097594;23;20401;-77
2021/01/08 11:45:20;;;;;;;14.17;13.10;;;4.30;99.90;;;;;;6097132;23;20386;-78
2021/01/08 11:47:47;;;;;;;13.73;12.90;;;4.30;99.90;;;;;;6096204;23;20832;-78
2021/01/08 11:50:14;;;;;;;14.70;13.63;;;4.20;99.90;;;;;;6095487;23;20430;-77
2021/01/08 11:52:41;;;;;;;14.57;13.57;;;4.30;99.90;;;;;;6097154;23;20394;-77
2021/01/08 11:55:09;;;;;;;14.23;13.30;;;4.20;99.90;;;;;;6095568;23;20205;-77
2021/01/08 11:57:35;;;;;;;14.93;13.83;;;4.20;99.90;;;;;;6095287;23;20285;-76
2021/01/08 12:00:02;;;;;;;14.07;12.97;;;4.20;99.90;;;;;;6096378;23;20421;-78
2021/01/08 12:02:28;;;;;;;13.73;12.83;;;4.30;99.90;;;;;;6095410;23;20520;-78
2021/01/08 12:04:55;;;;;;;14.03;13.03;;;4.30;99.90;;;;;;6095235;23;20410;-77
2021/01/08 12:07:21;;;;;;;14.00;13.00;;;4.30;99.90;;;;;;6094596;23;20449;-77
2021/01/08 12:09:47;;;;;;;14.07;12.97;;;4.30;99.90;;;;;;6095199;23;20398;-77
2021/01/08 12:12:14;;;;;;;14.17;13.07;;;4.30;99.90;;;;;;6095194;23;20761;-78
2021/01/08 12:14:40;;;;;;;14.20;13.20;;;4.30;99.90;;;;;;6096856;23;20434;-78
2021/01/08 12:17:08;;;;;;;14.10;13.10;;;4.30;99.90;;;;;;6095212;23;20808;-77
2021/01/08 12:19:35;;;;;;;13.97;12.97;;;4.30;99.90;;;;;;6094702;23;20765;-78
2021/01/08 12:22:02;;;;;;;13.33;12.50;;;4.40;99.90;;;;;;6095723;23;20429;-78
2021/01/08 12:24:28;;;;;;;13.47;12.53;;;4.40;99.90;;;;;;6096843;23;20169;-78
2021/01/08 12:26:55;;;;;;;14.30;13.20;;;4.40;99.90;;;;;;6097440;23;20390;-77
2021/01/08 12:29:22;;;;;;;13.30;12.40;;;4.50;99.90;;;;;;6095001;23;20438;-78
2021/01/08 12:31:48;;;;;;;13.53;12.63;;;4.40;99.90;;;;;;6095545;23;20527;-78
2021/01/08 12:34:15;;;;;;;12.30;11.50;;;4.40;99.90;;;;;;6096815;23;20185;-77
2021/01/08 12:36:41;;;;;;;13.20;12.30;;;4.40;99.90;;;;;;6095128;23;20201;-78
2021/01/08 12:39:09;;;;;;;13.33;12.23;;;4.40;99.90;;;;;;6094766;23;20202;-78
2021/01/08 12:41:36;;;;;;;13.53;12.53;;;4.40;99.90;;;;;;6096926;23;20512;-77